Time;durP1;ratioP1;P1;durP2;ratioP2;P2;SDS_P1;SDS_P2;PMS_P1;PMS_P2;Temp;Humidity;BMP_temperature;BMP_pressure;BME280_temperature;BME280_humidity;BME280_pressure;Samples;Min_cycle;Max_cycle;Signal;HPM_P1;HPM_P2
2022/11/08 00:02:24;;;;;;;8.27;6.77;;;;;;;7.61;100.00;98158.75;5100536;28;20328;-81
2022/11/08 00:04:50;;;;;;;14.00;7.60;;;;;;;7.62;100.00;98159.59;5100061;28;20222;-82
2022/11/08 00:15:37;;;;;;;9.13;7.37;;;;;;;7.42;100.00;98168.59;5100210;28;20336;-82
2022/11/08 00:18:04;;;;;;;9.87;7.80;;;;;;;7.41;100.00;98166.91;5100137;28;20242;-82
2022/11/08 00:20:30;;;;;;;10.70;8.03;;;;;;;7.35;100.00;98159.34;5100434;28;20241;-82
2022/11/08 00:22:57;;;;;;;11.47;8.33;;;;;;;7.32;100.00;98161.31;5100292;28;20223;-82
2022/11/08 00:25:25;;;;;;;10.93;7.87;;;;;;;7.38;100.00;98153.06;5101102;28;20277;-82
2022/11/08 00:27:52;;;;;;;11.50;7.47;;;;;;;7.34;100.00;98154.22;5101097;28;20248;-80
2022/11/08 00:30:19;;;;;;;10.47;8.23;;;;;;;7.30;100.00;98152.66;5100342;28;20267;-82
2022/11/08 00:32:45;;;;;;;13.17;7.97;;;;;;;7.30;100.00;98147.41;5099716;28;20215;-82
2022/11/08 00:35:12;;;;;;;10.70;7.53;;;;;;;7.24;100.00;98147.75;5099644;28;20219;-82
2022/11/08 00:37:39;;;;;;;8.87;7.33;;;;;;;7.24;100.00;98153.00;5097681;28;20537;-84
2022/11/08 00:40:06;;;;;;;8.80;7.60;;;;;;;7.22;100.00;98147.00;5099382;28;20478;-83
2022/11/08 00:42:34;;;;;;;10.60;8.23;;;;;;;7.19;100.00;98141.91;5099479;28;20273;-83
2022/11/08 00:45:01;;;;;;;10.23;8.77;;;;;;;7.17;100.00;98141.16;5099353;28;20283;-83
2022/11/08 00:47:28;;;;;;;9.43;7.90;;;;;;;7.14;100.00;98143.09;5099364;28;20223;-82
2022/11/08 00:49:54;;;;;;;11.73;8.50;;;;;;;7.14;100.00;98138.66;5099351;28;20292;-81
2022/11/08 00:52:21;;;;;;;10.07;8.77;;;;;;;7.14;100.00;98133.41;5099265;28;20268;-81
2022/11/08 00:54:48;;;;;;;11.00;8.40;;;;;;;7.14;100.00;98130.78;5099475;28;20575;-81
2022/11/08 00:57:15;;;;;;;11.93;8.93;;;;;;;7.19;100.00;98134.00;5099211;28;20215;-80
2022/11/08 00:59:43;;;;;;;11.20;7.70;;;;;;;7.18;100.00;98134.94;5099129;28;20288;-82
2022/11/08 01:02:09;;;;;;;9.87;8.30;;;;;;;7.16;100.00;98128.94;5099078;28;20274;-82
2022/11/08 01:04:36;;;;;;;11.10;8.60;;;;;;;7.10;100.00;98123.16;5097332;28;20575;-83
2022/11/08 01:07:03;;;;;;;12.70;8.27;;;;;;;7.05;100.00;98131.31;5098839;28;20250;-83
2022/11/08 01:09:29;;;;;;;10.80;9.17;;;;;;;6.94;100.00;98128.41;5098999;28;20246;-83
2022/11/08 01:11:56;;;;;;;10.47;8.47;;;;;;;6.95;100.00;98130.09;5098952;28;20241;-80
2022/11/08 01:14:23;;;;;;;9.50;8.50;;;;;;;6.91;100.00;98122.47;5098901;28;20292;-83
2022/11/08 01:16:51;;;;;;;12.53;9.20;;;;;;;6.92;100.00;98114.53;5098922;28;20223;-82
2022/11/08 01:19:17;;;;;;;12.20;9.33;;;;;;;6.97;100.00;98112.47;5098717;28;20273;-82
2022/11/08 01:21:44;;;;;;;11.90;9.23;;;;;;;6.90;100.00;98113.75;5098671;28;20242;-82
2022/11/08 01:24:11;;;;;;;12.33;8.80;;;;;;;6.86;100.00;98111.38;5098592;28;20230;-83
2022/11/08 01:26:37;;;;;;;13.37;9.30;;;;;;;6.87;100.00;98111.31;5098567;28;20268;-82
2022/11/08 01:29:04;;;;;;;14.23;10.33;;;;;;;6.81;100.00;98103.75;5097527;28;20262;-82
2022/11/08 01:31:32;;;;;;;11.47;9.53;;;;;;;6.80;100.00;98104.69;5098231;28;20233;-83
2022/11/08 01:34:00;;;;;;;11.43;9.30;;;;;;;6.79;100.00;98102.97;5098341;28;20279;-82
2022/11/08 01:36:28;;;;;;;11.23;8.80;;;;;;;6.76;100.00;98112.78;5098502;28;20214;-83
2022/11/08 01:38:57;;;;;;;12.80;9.60;;;;;;;6.76;100.00;98108.41;5098271;28;20222;-81
2022/11/08 01:41:27;;;;;;;12.50;9.50;;;;;;;6.79;100.00;98108.22;5098311;28;20242;-83
2022/11/08 01:43:54;;;;;;;12.27;9.13;;;;;;;6.76;100.00;98108.41;5097439;28;20566;-83
2022/11/08 01:46:39;;;;;;;12.43;9.40;;;;;;;6.73;100.00;98098.06;5098235;28;20222;-83
2022/11/08 01:49:34;;;;;;;12.77;9.47;;;;;;;6.70;100.00;98089.50;5098325;28;20222;-79
2022/11/08 01:52:21;;;;;;;11.13;8.43;;;;;;;6.72;100.00;98091.09;5102537;28;20612;-81
2022/11/08 01:55:08;;;;;;;12.63;9.07;;;;;;;6.67;100.00;98084.44;5103162;28;20219;-82
2022/11/08 01:57:39;;;;;;;12.00;8.70;;;;;;;6.64;100.00;98077.56;5098273;28;20248;-81
2022/11/08 02:00:11;;;;;;;12.33;8.90;;;;;;;6.65;100.00;98068.75;5101602;28;20570;-80
2022/11/08 02:02:39;;;;;;;12.30;9.07;;;;;;;6.64;100.00;98067.06;5101763;28;20280;-80
2022/11/08 02:05:23;;;;;;;12.33;9.50;;;;;;;6.63;100.00;98068.00;5098578;28;20226;-81
2022/11/08 02:07:51;;;;;;;11.07;9.27;;;;;;;6.66;100.00;98059.94;5097871;28;20308;-82
2022/11/08 02:10:19;;;;;;;11.57;8.93;;;;;;;6.61;100.00;98061.97;5098183;28;20388;-81
2022/11/08 02:12:46;;;;;;;12.03;9.00;;;;;;;6.62;100.00;98053.16;5098077;28;20603;-81
2022/11/08 02:15:15;;;;;;;12.23;9.03;;;;;;;6.59;100.00;98048.06;5097847;28;20214;-81
2022/11/08 02:17:42;;;;;;;11.80;8.53;;;;;;;6.53;100.00;98048.41;5097691;28;20218;-82
2022/11/08 02:20:11;;;;;;;10.47;8.23;;;;;;;6.55;100.00;98036.06;5097570;28;20609;-79
2022/11/08 02:22:45;;;;;;;10.03;7.87;;;;;;;6.52;100.00;98037.97;5095876;28;20266;-82
2022/11/08 02:25:14;;;;;;;12.40;8.20;;;;;;;6.48;100.00;98045.16;5097668;28;20244;-80
2022/11/08 02:27:41;;;;;;;10.30;8.03;;;;;;;6.45;100.00;98037.47;5097588;28;20265;-82
2022/11/08 02:30:09;;;;;;;11.37;8.40;;;;;;;6.47;100.00;98032.16;5097347;28;20271;-82
2022/11/08 02:32:39;;;;;;;11.80;7.67;;;;;;;6.44;100.00;98027.06;5097414;28;20272;-81
2022/11/08 02:35:09;;;;;;;11.07;7.93;;;;;;;6.43;100.00;98025.38;5097352;28;20218;-81
2022/11/08 02:37:36;;;;;;;9.80;8.17;;;;;;;6.40;100.00;98029.00;5097274;28;20267;-81
2022/11/08 02:40:03;;;;;;;12.77;9.30;;;;;;;6.42;100.00;98023.69;5097399;28;20519;-81
2022/11/08 02:42:31;;;;;;;9.83;7.70;;;;;;;6.40;100.00;98015.06;5097192;28;20322;-81
2022/11/08 02:44:58;;;;;;;11.03;8.30;;;;;;;6.38;100.00;98016.88;5097154;28;20218;-81
2022/11/08 02:47:24;;;;;;;9.73;8.07;;;;;;;6.33;100.00;98014.53;5095532;28;20530;-81
2022/11/08 02:49:51;;;;;;;9.53;7.77;;;;;;;6.33;100.00;98017.16;5097180;28;20218;-81
2022/11/08 02:52:18;;;;;;;8.97;7.63;;;;;;;6.35;100.00;98017.06;5097154;28;20524;-82
2022/11/08 02:54:44;;;;;;;9.00;7.40;;;;;;;6.31;100.00;98011.16;5097175;28;20295;-82
2022/11/08 02:57:11;;;;;;;8.87;7.50;;;;;;;6.33;100.00;98014.53;5097001;28;20267;-81
2022/11/08 02:59:39;;;;;;;13.10;7.53;;;;;;;6.26;100.00;98013.16;5096962;28;20245;-82
2022/11/08 03:02:06;;;;;;;9.63;7.37;;;;;;;6.25;100.00;98014.09;5096971;28;20292;-82
2022/11/08 03:04:32;;;;;;;10.13;7.10;;;;;;;6.27;100.00;98004.34;5096950;28;20274;-81
2022/11/08 03:06:59;;;;;;;9.17;7.23;;;;;;;6.24;100.00;98009.75;5096921;28;20217;-81
2022/11/08 03:09:26;;;;;;;10.57;7.50;;;;;;;6.28;100.00;98002.59;5096987;28;20250;-81
2022/11/08 03:11:53;;;;;;;8.77;6.87;;;;;;;6.21;100.00;98003.81;5097278;28;20276;-81
2022/11/08 03:14:20;;;;;;;9.93;7.13;;;;;;;6.16;100.00;97998.84;5095150;28;20218;-80
2022/11/08 03:16:48;;;;;;;11.07;7.30;;;;;;;6.10;100.00;98012.28;5097071;28;20250;-80
2022/11/08 03:19:15;;;;;;;8.93;6.70;;;;;;;6.04;100.00;98002.09;5096777;28;20261;-80
2022/11/08 03:21:42;;;;;;;10.93;7.17;;;;;;;6.05;100.00;98006.41;5096738;28;20238;-80
2022/11/08 03:24:10;;;;;;;8.60;6.30;;;;;;;6.06;100.00;98009.91;5096903;28;20552;-81
2022/11/08 03:26:37;;;;;;;9.00;7.00;;;;;;;6.00;100.00;98005.84;5096819;28;20217;-80
2022/11/08 03:29:03;;;;;;;9.47;7.10;;;;;;;6.03;100.00;98004.81;5096796;28;20218;-81
2022/11/08 03:31:33;;;;;;;11.57;8.63;;;;;;;6.01;100.00;98012.78;5096880;28;20609;-80
2022/11/08 03:34:01;;;;;;;9.40;6.97;;;;;;;6.00;100.00;98012.84;5096802;28;20621;-80
2022/11/08 03:36:28;;;;;;;10.17;6.70;;;;;;;5.96;100.00;98008.69;5096684;28;20218;-82
2022/11/08 03:38:54;;;;;;;10.73;7.53;;;;;;;5.90;100.00;98004.63;5095154;28;20497;-82
2022/11/08 03:41:21;;;;;;;10.33;7.30;;;;;;;5.90;100.00;97999.38;5096546;28;20291;-81
2022/11/08 03:43:48;;;;;;;10.50;7.30;;;;;;;5.89;100.00;98002.06;5096647;28;20222;-81
2022/11/08 03:46:14;;;;;;;10.50;6.90;;;;;;;5.89;100.00;98005.56;5096440;28;20243;-81
2022/11/08 03:48:41;;;;;;;9.00;6.43;;;;;;;5.84;100.00;98004.94;5096512;28;20223;-82
2022/11/08 03:51:09;;;;;;;10.37;7.20;;;;;;;5.82;100.00;98006.81;5096428;28;20226;-81
2022/11/08 03:53:36;;;;;;;10.33;6.30;;;;;;;5.76;100.00;97999.22;5096478;28;20218;-81
2022/11/08 03:56:03;;;;;;;9.80;7.37;;;;;;;5.69;100.00;97997.81;5096985;28;20222;-81
2022/11/08 03:58:29;;;;;;;6.83;6.13;;;;;;;5.71;100.00;98003.00;5096490;28;20555;-81
2022/11/08 04:00:57;;;;;;;7.60;6.80;;;;;;;5.67;100.00;98004.94;5096536;28;20346;-81
2022/11/08 04:03:23;;;;;;;9.23;7.27;;;;;;;5.74;100.00;98002.84;5096667;28;20233;-81
2022/11/08 04:05:50;;;;;;;9.67;7.80;;;;;;;5.78;100.00;98004.38;5095498;28;20222;-81
2022/11/08 04:08:18;;;;;;;9.00;7.20;;;;;;;5.77;100.00;98006.16;5099993;28;20238;-81
2022/11/08 04:10:45;;;;;;;9.00;7.30;;;;;;;5.81;100.00;98004.25;5099916;28;20222;-81
2022/11/08 04:15:56;;;;;;;9.87;7.33;;;;;;;5.86;100.00;98003.06;5100090;28;20694;-82
2022/11/08 04:21:20;;;;;;;9.03;7.17;;;;;;;5.81;100.00;97991.97;5099945;28;20218;-82
2022/11/08 04:23:49;;;;;;;9.83;7.63;;;;;;;5.80;100.00;97997.31;5099910;28;20211;-82
2022/11/08 04:26:17;;;;;;;9.23;7.43;;;;;;;5.80;100.00;97992.09;5099894;28;20215;-82
2022/11/08 04:28:44;;;;;;;11.43;8.07;;;;;;;5.79;100.00;97988.56;5099711;28;20267;-81
2022/11/08 04:31:13;;;;;;;12.40;7.90;;;;;;;5.70;100.00;97991.69;5098023;28;20225;-81
2022/11/08 04:33:40;;;;;;;10.27;6.90;;;;;;;5.67;100.00;97991.81;5099661;28;20546;-82
2022/11/08 04:36:12;;;;;;;9.57;7.50;;;;;;;5.67;100.00;97988.38;5099495;28;20246;-82
2022/11/08 04:38:39;;;;;;;11.07;7.50;;;;;;;5.67;100.00;97991.81;5099561;28;20271;-82
2022/11/08 04:41:10;;;;;;;9.67;7.20;;;;;;;5.64;100.00;97978.03;5099317;28;20222;-82
2022/11/08 04:43:37;;;;;;;11.13;7.90;;;;;;;5.63;100.00;97971.94;5099417;28;20295;-81
2022/11/08 04:46:06;;;;;;;14.30;7.83;;;;;;;5.67;100.00;97973.47;5099376;28;20217;-81
2022/11/08 04:48:33;;;;;;;11.30;8.00;;;;;;;5.67;100.00;97976.09;5099305;28;20222;-82
2022/11/08 04:51:04;;;;;;;9.20;8.00;;;;;;;5.65;100.00;97962.22;5099318;28;20572;-82
2022/11/08 04:53:31;;;;;;;12.53;7.90;;;;;;;5.61;100.00;97965.94;5099073;28;20271;-82
2022/11/08 04:56:04;;;;;;;10.73;8.33;;;;;;;5.58;100.00;97955.63;5097439;28;20566;-81
2022/11/08 04:58:35;;;;;;;11.23;8.23;;;;;;;5.61;100.00;97955.44;5099173;28;20303;-82
2022/11/08 05:01:02;;;;;;;9.83;7.67;;;;;;;5.62;100.00;97945.81;5099122;28;20504;-81
2022/11/08 05:03:29;;;;;;;12.10;7.87;;;;;;;5.54;100.00;97951.44;5098975;28;20242;-81
2022/11/08 05:05:59;;;;;;;15.37;8.50;;;;;;;5.52;100.00;97948.06;5098910;28;20271;-82
2022/11/08 05:08:26;;;;;;;11.30;7.90;;;;;;;5.54;100.00;97948.84;5098807;28;20305;-82
2022/11/08 05:10:53;;;;;;;11.13;7.70;;;;;;;5.53;100.00;97941.03;5098810;28;20222;-81
2022/11/08 05:13:19;;;;;;;12.23;7.80;;;;;;;5.48;100.00;97938.66;5098695;28;20568;-81
2022/11/08 05:15:47;;;;;;;13.80;7.67;;;;;;;5.45;100.00;97938.81;5098663;28;20270;-82
2022/11/08 05:18:14;;;;;;;9.37;6.53;;;;;;;5.47;100.00;97931.72;5098678;28;20221;-82
2022/11/08 05:23:25;;;;;;;9.50;7.10;;;;;;;5.41;100.00;97936.44;5097482;28;20659;-82
2022/11/08 05:25:53;;;;;;;9.33;6.77;;;;;;;5.37;100.00;97941.00;5098466;28;20217;-82
2022/11/08 05:28:20;;;;;;;9.53;6.97;;;;;;;5.40;100.00;97940.84;5098506;28;20317;-83
2022/11/08 05:30:53;;;;;;;9.90;7.13;;;;;;;5.46;100.00;97951.00;5098519;28;20214;-83
2022/11/08 05:33:20;;;;;;;11.00;7.87;;;;;;;5.51;100.00;97946.34;5098369;28;20280;-80
2022/11/08 05:35:47;;;;;;;8.50;6.67;;;;;;;5.55;100.00;97944.44;5098381;28;20219;-80
2022/11/08 05:38:14;;;;;;;8.63;6.43;;;;;;;5.57;100.00;97947.81;5098349;28;20222;-83
2022/11/08 05:40:41;;;;;;;8.17;6.40;;;;;;;5.58;100.00;97947.75;5098279;28;20300;-81
2022/11/08 05:43:07;;;;;;;10.70;7.53;;;;;;;5.54;100.00;97943.59;5098184;28;20298;-82
2022/11/08 05:45:37;;;;;;;9.30;6.73;;;;;;;5.52;100.00;97942.84;5098253;28;20222;-82
2022/11/08 05:48:06;;;;;;;8.97;6.43;;;;;;;5.54;100.00;97937.50;5096442;28;20688;-82
2022/11/08 05:50:34;;;;;;;10.67;6.73;;;;;;;5.50;100.00;97936.81;5098137;28;20338;-82
2022/11/08 05:53:01;;;;;;;10.00;7.13;;;;;;;5.51;100.00;97938.50;5098230;28;20243;-83
2022/11/08 05:55:28;;;;;;;9.47;6.50;;;;;;;5.53;100.00;97926.19;5097949;28;20218;-82
2022/11/08 05:57:55;;;;;;;9.07;7.10;;;;;;;5.53;100.00;97931.41;5098133;28;20274;-82
2022/11/08 06:00:22;;;;;;;8.03;6.90;;;;;;;5.52;100.00;97934.97;5097824;28;20215;-82
2022/11/08 06:02:49;;;;;;;10.60;7.10;;;;;;;5.52;100.00;97929.72;5097750;28;20294;-81
2022/11/08 06:05:17;;;;;;;10.73;6.53;;;;;;;5.48;100.00;97933.41;5097956;28;20245;-82
2022/11/08 06:07:43;;;;;;;7.90;7.10;;;;;;;5.51;100.00;97930.63;5097754;28;20221;-81
2022/11/08 06:10:10;;;;;;;7.57;6.10;;;;;;;5.50;100.00;97920.25;5097410;28;20242;-83
2022/11/08 06:12:38;;;;;;;11.20;7.00;;;;;;;5.45;100.00;97932.75;5096836;28;20257;-82
2022/11/08 06:15:05;;;;;;;8.87;6.60;;;;;;;5.44;100.00;97934.50;5096992;28;20252;-82
2022/11/08 06:17:32;;;;;;;8.37;6.33;;;;;;;5.39;100.00;97923.44;5097623;28;20282;-81
2022/11/08 06:19:59;;;;;;;9.57;7.20;;;;;;;5.42;100.00;97931.13;5097656;28;20216;-82
2022/11/08 06:22:30;;;;;;;8.90;7.07;;;;;;;5.38;100.00;97929.56;5097401;28;20652;-81
2022/11/08 06:24:57;;;;;;;8.53;6.77;;;;;;;5.38;100.00;97926.13;5097459;28;20251;-82
2022/11/08 06:27:24;;;;;;;9.00;7.27;;;;;;;5.37;100.00;97927.88;5097438;28;20220;-82
2022/11/08 06:29:51;;;;;;;8.83;6.47;;;;;;;5.44;100.00;97928.44;5096987;28;20215;-81
2022/11/08 06:32:17;;;;;;;9.43;6.33;;;;;;;5.46;100.00;97927.44;5097353;28;20753;-82
2022/11/08 06:34:45;;;;;;;8.50;6.50;;;;;;;5.45;100.00;97930.94;5097322;28;20214;-81
2022/11/08 06:37:12;;;;;;;8.37;6.87;;;;;;;5.47;100.00;97931.72;5097449;28;20230;-82
2022/11/08 06:39:41;;;;;;;8.40;6.50;;;;;;;5.47;100.00;97939.59;5095676;28;20691;-81
2022/11/08 06:42:07;;;;;;;9.30;6.57;;;;;;;5.44;100.00;97931.03;5097220;28;20238;-81
2022/11/08 06:44:34;;;;;;;9.87;7.03;;;;;;;5.42;100.00;97938.97;5097307;28;20218;-81
2022/11/08 06:47:01;;;;;;;14.33;7.83;;;;;;;5.46;100.00;97931.81;5097357;28;20256;-82
2022/11/08 06:49:28;;;;;;;8.73;6.80;;;;;;;5.51;100.00;97935.88;5097248;28;20243;-82
2022/11/08 06:51:54;;;;;;;7.90;6.77;;;;;;;5.54;100.00;97933.09;5097323;28;20221;-81
2022/11/08 06:54:22;;;;;;;8.67;6.90;;;;;;;5.56;100.00;97930.41;5097348;28;20220;-82
2022/11/08 06:56:50;;;;;;;9.13;6.67;;;;;;;5.61;100.00;97937.09;5097261;28;20225;-82
2022/11/08 06:59:17;;;;;;;10.47;7.57;;;;;;;5.67;100.00;97923.66;5097031;28;20217;-82
2022/11/08 07:01:43;;;;;;;10.60;7.60;;;;;;;5.71;100.00;97919.97;5096979;28;20222;-82
2022/11/08 07:04:12;;;;;;;18.53;8.10;;;;;;;5.73;100.00;97931.19;5095983;28;20259;-82
2022/11/08 07:06:41;;;;;;;11.17;7.30;;;;;;;5.79;100.00;97930.00;5096218;28;20214;-82
2022/11/08 07:09:08;;;;;;;10.57;7.50;;;;;;;5.90;100.00;97931.19;5097075;28;20582;-82
2022/11/08 07:11:35;;;;;;;10.20;7.20;;;;;;;5.95;100.00;97918.69;5096905;28;20301;-81
2022/11/08 07:14:03;;;;;;;10.57;7.37;;;;;;;6.03;100.00;97921.72;5096907;28;20578;-83
2022/11/08 07:16:30;;;;;;;9.00;7.10;;;;;;;6.14;100.00;97924.63;5096939;28;20279;-82
2022/11/08 07:18:56;;;;;;;9.77;6.93;;;;;;;6.21;100.00;97930.34;5096994;28;20226;-81
2022/11/08 07:21:23;;;;;;;9.47;7.40;;;;;;;6.29;100.00;97944.75;5096972;28;20275;-81
2022/11/08 07:23:50;;;;;;;9.57;7.03;;;;;;;6.33;100.00;97935.78;5096814;28;20291;-81
2022/11/08 07:26:17;;;;;;;10.60;7.53;;;;;;;6.39;100.00;97945.94;5096849;28;20683;-80
2022/11/08 07:28:43;;;;;;;10.30;7.33;;;;;;;6.42;100.00;97953.63;5097031;28;20215;-81
2022/11/08 07:31:12;;;;;;;10.70;7.07;;;;;;;6.54;100.00;97946.88;5095228;28;20258;-81
2022/11/08 07:33:41;;;;;;;9.33;7.57;;;;;;;6.63;100.00;97936.69;5096755;28;20211;-82
2022/11/08 07:36:08;;;;;;;10.57;7.97;;;;;;;6.76;100.00;97945.56;5096890;28;20272;-81
2022/11/08 07:38:35;;;;;;;10.00;7.23;;;;;;;6.84;100.00;97948.59;5096927;28;20246;-82
2022/11/08 07:41:02;;;;;;;10.93;8.10;;;;;;;6.93;100.00;97950.72;5097815;28;20245;-81
2022/11/08 07:43:29;;;;;;;10.63;7.67;;;;;;;7.00;100.00;97938.03;5100405;28;20284;-82
2022/11/08 07:45:58;;;;;;;10.03;7.30;;;;;;;7.01;100.00;97945.03;5100515;28;20214;-82
2022/11/08 07:48:27;;;;;;;9.47;7.03;;;;;;;7.00;100.00;97954.66;5100501;28;20706;-82
2022/11/08 07:50:54;;;;;;;10.77;7.17;;;;;;;6.97;100.00;97941.69;5100408;28;20275;-83
2022/11/08 07:53:21;;;;;;;10.87;7.80;;;;;;;6.96;100.00;97934.75;5100510;28;20211;-82
2022/11/08 07:55:48;;;;;;;9.60;7.10;;;;;;;6.98;100.00;97930.28;5099581;28;20343;-82
2022/11/08 07:58:16;;;;;;;9.77;7.50;;;;;;;6.94;100.00;97923.50;5099731;28;20222;-80
2022/11/08 08:00:44;;;;;;;9.63;7.43;;;;;;;6.97;100.00;97928.56;5100519;28;20218;-82
2022/11/08 08:03:14;;;;;;;10.47;7.63;;;;;;;6.97;100.00;97914.59;5100188;28;20238;-82
2022/11/08 08:05:44;;;;;;;9.30;7.10;;;;;;;7.02;100.00;97895.00;5100181;28;20286;-81
2022/11/08 08:08:12;;;;;;;9.40;7.50;;;;;;;7.16;100.00;97879.28;5100066;28;20327;-81
2022/11/08 08:10:40;;;;;;;11.20;8.33;;;;;;;7.29;100.00;97894.19;5100137;28;20218;-80
2022/11/08 08:13:07;;;;;;;13.03;9.33;;;;;;;7.49;100.00;97895.63;5098219;28;20214;-79
2022/11/08 08:15:33;;;;;;;10.23;8.20;;;;;;;7.74;100.00;97886.16;5096894;28;20265;-82
2022/11/08 08:18:01;;;;;;;11.10;7.60;;;;;;;8.00;100.00;97895.91;5098917;28;20218;-82
2022/11/08 08:20:28;;;;;;;8.20;6.53;;;;;;;8.27;100.00;97903.88;5099005;28;20216;-79
2022/11/08 08:22:56;;;;;;;6.73;5.73;;;;;;;8.53;100.00;97911.81;5094369;28;20581;-81
2022/11/08 08:25:23;;;;;;;6.23;5.57;;;;;;;8.78;100.00;97918.94;5098942;28;20710;-79
2022/11/08 08:27:52;;;;;;;7.83;5.73;;;;;;;8.95;100.00;97926.59;5098793;28;20215;-80
2022/11/08 08:30:19;;;;;;;7.50;5.53;;;;;;;9.10;100.00;97933.47;5098041;28;20687;-80
2022/11/08 08:32:47;;;;;;;7.73;5.77;;;;;;;9.22;100.00;97922.13;5098720;28;20594;-79
2022/11/08 08:35:14;;;;;;;6.47;5.73;;;;;;;9.37;100.00;97923.75;5098593;28;20227;-79
2022/11/08 08:37:41;;;;;;;11.70;7.03;;;;;;;9.52;100.00;97927.97;5097936;28;20273;-81
2022/11/08 08:40:10;;;;;;;8.00;6.80;;;;;;;9.73;100.00;97923.88;5098476;28;20298;-80
2022/11/08 08:42:37;;;;;;;8.57;6.50;;;;;;;9.94;100.00;97930.28;5098494;28;20218;-80
2022/11/08 08:45:04;;;;;;;6.20;5.27;;;;;;;10.08;100.00;97922.25;5098036;28;20305;-81
2022/11/08 08:47:31;;;;;;;6.90;5.07;;;;;;;10.17;100.00;97933.06;5098064;28;20222;-80
2022/11/08 08:49:58;;;;;;;6.63;4.73;;;;;;;10.27;100.00;97933.25;5097730;28;20225;-79
2022/11/08 08:52:24;;;;;;;6.88;5.38;;;;;;;10.30;100.00;97917.16;5098246;28;20774;-78
2022/11/08 08:54:51;;;;;;;5.07;4.23;;;;;;;10.32;100.00;97925.81;5099158;28;20244;-78
2022/11/08 09:07:58;;;;;;;5.77;4.53;;;;;;;10.36;100.00;97911.44;5395156;22;22527;-82
2022/11/08 09:10:25;;;;;;;7.47;4.70;;;;;;;10.27;100.00;97901.53;5050433;28;20261;-83
2022/11/08 09:12:52;;;;;;;7.20;5.00;;;;;;;10.17;100.00;97909.28;5058644;28;20215;-83
2022/11/08 09:15:19;;;;;;;7.03;5.60;;;;;;;10.07;100.00;97920.56;5058313;28;20482;-81
2022/11/08 09:17:46;;;;;;;6.20;4.70;;;;;;;10.04;100.00;97923.44;5058606;28;20255;-82
2022/11/08 09:20:13;;;;;;;7.13;5.03;;;;;;;10.04;100.00;97926.91;5058307;28;20266;-83
2022/11/08 09:22:40;;;;;;;6.30;5.07;;;;;;;10.06;100.00;97924.19;5057876;28;20305;-83
2022/11/08 09:25:09;;;;;;;5.30;4.67;;;;;;;10.13;100.00;97922.78;5057436;28;20244;-83
2022/11/08 09:27:35;;;;;;;6.40;4.70;;;;;;;10.17;100.00;97917.19;5057651;28;20614;-83
2022/11/08 09:30:02;;;;;;;5.60;4.90;;;;;;;10.26;100.00;97926.25;5056197;28;20467;-80
2022/11/08 09:32:29;;;;;;;6.70;4.77;;;;;;;10.29;100.00;97920.75;5057251;28;20561;-82
2022/11/08 09:34:56;;;;;;;5.77;5.17;;;;;;;10.34;100.00;97926.56;5057766;28;20252;-82
2022/11/08 09:37:24;;;;;;;4.97;4.27;;;;;;;10.31;100.00;97917.06;5057487;28;20662;-81
2022/11/08 09:39:51;;;;;;;5.67;4.17;;;;;;;10.29;100.00;97915.47;5057448;28;20270;-82
2022/11/08 09:42:42;;;;;;;6.40;4.20;;;;;;;10.23;100.00;97916.78;5057988;28;20346;-82
2022/11/08 09:45:24;;;;;;;4.97;3.90;;;;;;;10.18;100.00;97918.88;5058277;28;20266;-80
2022/11/08 09:47:58;;;;;;;5.00;4.30;;;;;;;10.12;100.00;97915.81;5057983;28;20257;-81
2022/11/08 09:50:31;;;;;;;6.03;4.10;;;;;;;10.10;100.00;97920.38;5057817;28;20265;-81
2022/11/08 09:53:06;;;;;;;5.67;4.60;;;;;;;10.11;100.00;97906.22;5058153;28;20252;-80
2022/11/08 09:55:38;;;;;;;5.30;4.10;;;;;;;10.08;100.00;97906.41;5057735;28;20258;-81
2022/11/08 09:58:15;;;;;;;6.00;3.87;;;;;;;10.09;100.00;97902.84;5056110;28;20246;-80
2022/11/08 10:00:41;;;;;;;5.47;3.90;;;;;;;10.16;100.00;97898.81;5057761;28;20270;-80
2022/11/08 10:03:13;;;;;;;5.45;4.90;;;;;;;10.31;100.00;97903.00;5055726;28;20495;-79
2022/11/08 10:05:43;;;;;;;5.27;4.50;;;;;;;10.52;100.00;97906.75;5057270;28;20363;-79
2022/11/08 10:08:21;;;;;;;8.17;4.60;;;;;;;10.76;100.00;97895.22;5063779;28;20250;-82
2022/11/08 10:11:17;;;;;;;7.83;4.87;;;;;;;11.00;100.00;97880.19;5097828;28;20222;-82
2022/11/08 10:13:57;;;;;;;7.47;4.13;;;;;;;11.24;100.00;97869.53;5097495;28;20257;-84
2022/11/08 10:16:33;;;;;;;5.40;4.37;;;;;;;11.33;99.04;97855.63;5097423;28;20586;-84
2022/11/08 10:19:21;;;;;;;7.47;4.63;;;;;;;11.63;97.56;97845.34;5097560;28;20221;-84
2022/11/08 10:21:55;;;;;;;7.00;4.50;;;;;;;11.89;96.39;97844.16;5097372;28;20244;-86
2022/11/08 10:24:31;;;;;;;4.67;3.63;;;;;;;12.09;94.94;97838.97;5096670;28;20272;-85
2022/11/08 10:27:00;;;;;;;6.30;3.83;;;;;;;12.26;94.43;97834.97;5097552;28;20222;-85
2022/11/08 10:29:43;;;;;;;5.40;4.43;;;;;;;12.29;93.77;97830.25;5096812;28;20469;-82
2022/11/08 10:32:20;;;;;;;6.50;4.00;;;;;;;12.33;94.49;97841.44;5097425;28;20216;-84
2022/11/08 10:34:53;;;;;;;5.37;3.70;;;;;;;12.33;94.77;97844.09;5097505;28;20496;-80
2022/11/08 10:37:20;;;;;;;7.17;4.07;;;;;;;12.29;94.23;97835.56;5097306;28;20290;-78
2022/11/08 10:39:57;;;;;;;6.60;4.27;;;;;;;12.28;94.86;97839.16;5097372;28;20264;-79
2022/11/08 10:42:35;;;;;;;7.30;4.00;;;;;;;12.28;95.46;97838.34;5097396;28;20293;-80
2022/11/08 10:45:03;;;;;;;6.60;4.10;;;;;;;12.31;95.08;97824.84;5097369;28;20704;-80
2022/11/08 10:47:32;;;;;;;5.20;4.00;;;;;;;12.33;95.11;97836.13;5097422;28;20225;-80
2022/11/08 10:50:10;;;;;;;5.37;4.10;;;;;;;12.37;94.89;97834.94;5095929;28;20576;-80
2022/11/08 10:52:40;;;;;;;5.40;3.90;;;;;;;12.41;94.35;97813.34;5097189;28;20225;-80
2022/11/08 10:55:08;;;;;;;5.30;4.10;;;;;;;12.46;93.45;97816.47;5097223;28;20253;-80
2022/11/08 10:57:38;;;;;;;5.90;3.93;;;;;;;12.49;91.85;97810.09;5097024;28;20221;-80
2022/11/08 11:00:26;;;;;;;6.53;4.07;;;;;;;12.60;90.91;97807.41;5097088;28;20300;-80
2022/11/08 11:02:55;;;;;;;7.20;3.70;;;;;;;12.76;90.78;97807.81;5096888;28;20223;-81
2022/11/08 11:05:32;;;;;;;4.43;3.60;;;;;;;12.85;90.62;97807.88;5097013;28;20228;-80
2022/11/08 11:08:15;;;;;;;6.43;3.80;;;;;;;12.87;90.51;97794.50;5096895;28;20220;-80
2022/11/08 11:10:43;;;;;;;4.70;3.60;;;;;;;12.84;90.73;97786.81;5097137;28;20274;-80
2022/11/08 11:13:12;;;;;;;4.47;3.30;;;;;;;12.81;91.20;97801.16;5097088;28;20221;-81
2022/11/08 11:15:46;;;;;;;5.03;3.33;;;;;;;12.81;91.92;97805.63;5098047;28;20271;-82
2022/11/08 11:18:23;;;;;;;6.20;3.83;;;;;;;12.91;92.04;97804.72;5101350;28;20656;-83
2022/11/08 11:21:05;;;;;;;5.60;3.53;;;;;;;13.01;91.74;97792.41;5101412;28;20225;-83
2022/11/08 11:23:35;;;;;;;5.30;3.10;;;;;;;13.10;90.77;97785.47;5101045;28;20242;-82
2022/11/08 11:26:03;;;;;;;3.83;3.43;;;;;;;13.21;89.41;97783.59;5101059;28;20222;-82
2022/11/08 11:28:34;;;;;;;6.50;3.77;;;;;;;13.27;88.93;97771.63;5100451;28;20527;-82
2022/11/08 11:31:14;;;;;;;4.43;2.80;;;;;;;13.39;88.18;97759.97;5100977;28;20256;-82
2022/11/08 11:33:48;;;;;;;6.27;3.67;;;;;;;13.50;87.55;97754.56;5100889;28;20648;-81
2022/11/08 11:36:19;;;;;;;4.40;3.23;;;;;;;13.57;86.79;97747.75;5100918;28;20695;-82
2022/11/08 11:38:59;;;;;;;5.03;3.00;;;;;;;13.66;86.77;97742.47;5101150;28;20225;-82
2022/11/08 11:41:35;;;;;;;3.23;2.57;;;;;;;13.84;85.06;97734.69;5099323;28;20250;-83
2022/11/08 11:44:13;;;;;;;4.57;2.73;;;;;;;14.11;83.37;97717.13;5100771;28;20237;-81
2022/11/08 11:46:52;;;;;;;3.37;2.63;;;;;;;14.46;82.36;97712.16;5100881;28;20239;-82
2022/11/08 11:49:21;;;;;;;6.37;3.00;;;;;;;14.77;80.40;97700.38;5100834;28;20268;-81
2022/11/08 11:51:47;;;;;;;5.20;3.40;;;;;;;14.90;77.89;97665.50;5098403;28;20440;-79
2022/11/08 11:54:16;;;;;;;6.17;4.33;;;;;;;15.09;77.63;97676.09;5098048;28;20211;-81
2022/11/08 11:56:51;;;;;;;3.40;2.73;;;;;;;15.25;75.21;97647.88;5086071;28;20223;-76
2022/11/08 11:59:48;;;;;;;3.60;2.50;;;;;;;15.56;74.66;97653.75;5079018;28;20596;-80
2022/11/08 12:02:53;;;;;;;3.00;2.70;;;;;;;15.78;73.60;97642.72;5090882;28;20626;-76
2022/11/08 12:05:36;;;;;;;4.80;2.80;;;;;;;15.80;73.16;97648.72;5078204;28;20373;-78
2022/11/08 12:08:17;;;;;;;4.80;3.10;;;;;;;15.76;73.40;97647.38;5078030;28;20266;-83